Portada
METAR-TAF:

METAR-TAF

Aeroports :

Leticia, Colòmbia

latitud: 04-10S, longitud: 069-57W, altitud: 84 m

Observació

L'informe es va fer fa 39 minuts, a les 09:00 UTC
Vent calma
Temperatura 24°C
Humitat 100%
Pressió 1010 hPa
Visibilitat 10 km o més
Escasses núvols a una alçada de 1200 ft
Cel ennuvolat a una alçada de 8000 ft

METAR: SKLT 210900Z 00000KT 9999 FEW012 BKN080 24/24 A2983

Hora: 04:39 (09:39 UTC)

Pronòstic

L'informe es va fer fa 5 hores i 9 minuts, a les 04:30 UTC
Pronòstic vàlid del 21 a les 06 UTC al 22 a les 06 UTC
Vent 2 kt amb direcció variable
Visibilitat 10 km o més
Escasses núvols a una alçada de 1700 ft
Núvols disperses a una alçada de 9000 ft
Temporalment
l' 21 a les 14 UTC al 21 a les 20 UTC
Vent 8 kt del Oest/Sud-Oest

TAF: SKLT 210430Z 2106/2206 VRB02KT 9999 FEW017 SCT090 TEMPO 2114/2120 25008KT TX33/2118Z TN22/2110Z

Observacions i pronòstics meteorològics de més de 4000 aeroports (METAR i TAF).

Les estacions disponibles són els punts grocs i vermells al mapa.

Posi el ratolí al punt desitjat per veure el nom de l'estació.

Feu clic per veure les observacions i els pronòstics meteorològics.

Per canviar el mapa: feu clic els botons verds amb una creu de color negre per apropar; al botó verd amb un guió per allunyar la imatge; o en les fletxes verdes per a mapes adjacents.


METAR-TAF: